Time;durP1;ratioP1;P1;durP2;ratioP2;P2;SDS_P1;SDS_P2;PMS_P1;PMS_P2;Temp;Humidity;BMP_temperature;BMP_pressure;BME280_temperature;BME280_humidity;BME280_pressure;Samples;Min_cycle;Max_cycle;Signal;HPM_P1;HPM_P2
2022/07/06 00:00:54;;;;;;;;;;;26.70;38.70;;;;;;1618439;71;583;-70
2022/07/06 00:02:56;;;;;;;;;;;26.70;38.70;;;;;;1625809;71;1168;-70
2022/07/06 00:04:58;;;;;;;;;;;26.70;38.70;;;;;;1630439;71;1468;-70
2022/07/06 00:07:00;;;;;;;;;;;26.60;38.60;;;;;;1620243;70;583;-68
2022/07/06 00:09:02;;;;;;;;;;;26.60;38.70;;;;;;1621155;70;750;-67
2022/07/06 00:11:04;;;;;;;;;;;26.60;38.80;;;;;;1625892;71;665;-69
2022/07/06 00:13:05;;;;;;;;;;;26.70;38.80;;;;;;1618136;71;1131;-68
2022/07/06 00:15:07;;;;;;;;;;;26.70;38.80;;;;;;1623596;71;628;-68
2022/07/06 00:17:09;;;;;;;;;;;26.70;38.90;;;;;;1623422;71;658;-69
2022/07/06 00:19:11;;;;;;;;;;;26.60;38.90;;;;;;1628274;71;1931;-69
2022/07/06 00:21:13;;;;;;;;;;;26.70;38.90;;;;;;1622834;70;645;-66
2022/07/06 00:23:15;;;;;;;;;;;26.70;39.00;;;;;;1634077;70;1084;-67
2022/07/06 00:25:17;;;;;;;;;;;26.70;38.90;;;;;;1626270;70;687;-67
2022/07/06 00:27:19;;;;;;;;;;;26.70;38.80;;;;;;1615781;70;648;-67
2022/07/06 00:29:21;;;;;;;;;;;26.60;38.90;;;;;;1618513;70;636;-69
2022/07/06 00:31:23;;;;;;;;;;;26.70;38.90;;;;;;1622995;71;722;-67
2022/07/06 00:33:25;;;;;;;;;;;26.70;38.90;;;;;;1619635;70;1482;-68
2022/07/06 00:35:26;;;;;;;;;;;26.70;38.90;;;;;;1618512;71;797;-70
2022/07/06 00:37:28;;;;;;;;;;;26.70;39.00;;;;;;1626350;70;689;-67
2022/07/06 00:39:30;;;;;;;;;;;26.70;39.10;;;;;;1625271;71;1935;-69
2022/07/06 00:41:32;;;;;;;;;;;26.70;39.20;;;;;;1620273;71;681;-68
2022/07/06 00:43:51;;;;;;;;;;;26.60;39.20;;;;;;1612453;70;1121;-68
2022/07/06 00:45:53;;;;;;;;;;;26.70;39.10;;;;;;1627633;70;743;-68
2022/07/06 00:47:55;;;;;;;;;;;26.70;39.20;;;;;;1631871;71;1506;-68
2022/07/06 00:50:14;;;;;;;;;;;26.60;39.20;;;;;;1620878;70;739;-69
2022/07/06 00:52:16;;;;;;;;;;;26.70;39.20;;;;;;1626639;70;1129;-69
2022/07/06 00:54:18;;;;;;;;;;;26.70;39.20;;;;;;1629961;70;670;-66
2022/07/06 00:56:20;;;;;;;;;;;26.70;39.20;;;;;;1617453;70;712;-67
2022/07/06 00:58:22;;;;;;;;;;;26.70;39.30;;;;;;1620378;70;1952;-67
2022/07/06 01:00:25;;;;;;;;;;;26.70;39.30;;;;;;1617847;70;1500;-66
2022/07/06 01:02:26;;;;;;;;;;;26.70;39.30;;;;;;1633398;70;1137;-67
2022/07/06 01:04:31;;;;;;;;;;;26.70;39.40;;;;;;1617303;71;739;-66
2022/07/06 01:06:32;;;;;;;;;;;26.70;39.40;;;;;;1618489;71;969;-65
2022/07/06 01:08:34;;;;;;;;;;;26.70;39.30;;;;;;1615117;70;698;-69
2022/07/06 01:10:36;;;;;;;;;;;26.70;39.30;;;;;;1622898;70;666;-67
2022/07/06 01:12:38;;;;;;;;;;;26.70;39.30;;;;;;1616806;71;1104;-66
2022/07/06 01:14:40;;;;;;;;;;;26.70;39.20;;;;;;1635185;71;1178;-65
2022/07/06 01:16:42;;;;;;;;;;;26.70;39.20;;;;;;1625750;71;625;-64
2022/07/06 01:18:44;;;;;;;;;;;26.70;39.20;;;;;;1612186;71;1953;-67
2022/07/06 01:20:46;;;;;;;;;;;26.70;39.30;;;;;;1620502;71;745;-65
2022/07/06 01:22:48;;;;;;;;;;;26.70;39.30;;;;;;1621749;70;1145;-64
2022/07/06 01:24:50;;;;;;;;;;;26.70;39.30;;;;;;1627578;70;726;-66
2022/07/06 01:26:52;;;;;;;;;;;26.70;39.40;;;;;;1631454;71;659;-67
2022/07/06 01:28:54;;;;;;;;;;;26.70;39.40;;;;;;1630231;70;1442;-64
2022/07/06 01:30:55;;;;;;;;;;;26.60;39.30;;;;;;1642671;71;942;-65
2022/07/06 01:32:57;;;;;;;;;;;26.70;39.20;;;;;;1647728;70;2982;-67
2022/07/06 01:35:00;;;;;;;;;;;26.60;39.20;;;;;;1653599;70;693;-68
2022/07/06 01:37:02;;;;;;;;;;;26.70;39.30;;;;;;1662107;70;674;-67
2022/07/06 01:39:04;;;;;;;;;;;26.60;39.40;;;;;;1659882;70;1929;-67
2022/07/06 01:41:06;;;;;;;;;;;26.70;39.40;;;;;;1659290;70;677;-68
2022/07/06 01:43:07;;;;;;;;;;;26.70;39.40;;;;;;1664252;70;1547;-67
2022/07/06 01:45:10;;;;;;;;;;;26.70;39.50;;;;;;1655146;70;824;-65
2022/07/06 01:47:12;;;;;;;;;;;26.60;39.50;;;;;;1659497;70;689;-67
2022/07/06 01:49:13;;;;;;;;;;;26.60;39.40;;;;;;1659451;70;750;-67
2022/07/06 01:51:15;;;;;;;;;;;26.60;39.50;;;;;;1657266;71;701;-67
2022/07/06 01:53:17;;;;;;;;;;;26.60;39.50;;;;;;1654739;70;1141;-68
2022/07/06 01:55:19;;;;;;;;;;;26.60;39.40;;;;;;1657321;70;757;-67
2022/07/06 01:57:21;;;;;;;;;;;26.60;39.40;;;;;;1658702;71;1451;-67
2022/07/06 01:59:23;;;;;;;;;;;26.60;39.50;;;;;;1658982;70;1914;-67
2022/07/06 02:01:25;;;;;;;;;;;26.60;39.60;;;;;;1649608;70;637;-69
2022/07/06 02:03:27;;;;;;;;;;;26.60;39.60;;;;;;1655738;70;1148;-67
2022/07/06 02:05:28;;;;;;;;;;;26.60;39.50;;;;;;1648679;71;642;-67
2022/07/06 02:07:30;;;;;;;;;;;26.60;39.60;;;;;;1653904;70;717;-67
2022/07/06 02:09:32;;;;;;;;;;;26.60;39.50;;;;;;1656408;70;666;-68
2022/07/06 02:11:34;;;;;;;;;;;26.60;39.50;;;;;;1658851;70;1344;-68
2022/07/06 02:13:36;;;;;;;;;;;26.60;39.60;;;;;;1662845;70;1145;-66
2022/07/06 02:15:38;;;;;;;;;;;26.60;39.60;;;;;;1656053;71;679;-68
2022/07/06 02:17:40;;;;;;;;;;;26.60;39.40;;;;;;1657028;70;677;-66
2022/07/06 02:19:41;;;;;;;;;;;26.60;39.40;;;;;;1659148;70;1924;-69
2022/07/06 02:21:43;;;;;;;;;;;26.60;39.60;;;;;;1655519;70;648;-69
2022/07/06 02:23:45;;;;;;;;;;;26.60;39.50;;;;;;1654561;70;1151;-67
2022/07/06 02:25:47;;;;;;;;;;;26.60;39.50;;;;;;1658603;70;1488;-68
2022/07/06 02:27:49;;;;;;;;;;;26.60;39.60;;;;;;1659762;70;703;-67
2022/07/06 02:29:51;;;;;;;;;;;26.60;39.60;;;;;;1659225;71;718;-67
2022/07/06 02:31:53;;;;;;;;;;;26.60;39.50;;;;;;1656206;70;802;-67
2022/07/06 02:33:55;;;;;;;;;;;26.60;39.40;;;;;;1655519;70;1146;-67
2022/07/06 02:35:56;;;;;;;;;;;26.60;39.50;;;;;;1658125;70;548;-68
2022/07/06 02:37:58;;;;;;;;;;;26.60;39.60;;;;;;1659183;70;687;-67
2022/07/06 02:40:01;;;;;;;;;;;26.60;39.50;;;;;;1662107;71;1934;-68
2022/07/06 02:42:03;;;;;;;;;;;26.60;39.50;;;;;;1654428;70;649;-67
2022/07/06 02:44:05;;;;;;;;;;;26.60;39.50;;;;;;1653228;71;1206;-66
2022/07/06 02:46:07;;;;;;;;;;;26.60;39.40;;;;;;1658205;70;728;-68
2022/07/06 02:48:08;;;;;;;;;;;26.60;39.50;;;;;;1651967;70;737;-67
2022/07/06 02:50:10;;;;;;;;;;;26.60;39.50;;;;;;1651930;70;634;-66
2022/07/06 02:52:12;;;;;;;;;;;26.50;39.60;;;;;;1655321;70;680;-66
2022/07/06 02:54:14;;;;;;;;;;;26.60;39.60;;;;;;1596828;73;1361;-66
2022/07/06 02:56:16;;;;;;;;;;;26.60;39.60;;;;;;1623775;73;655;-66
2022/07/06 02:58:18;;;;;;;;;;;26.60;39.70;;;;;;1621890;71;796;-66
2022/07/06 03:00:20;;;;;;;;;;;26.60;39.60;;;;;;1634561;71;1925;-65
2022/07/06 03:02:21;;;;;;;;;;;26.50;39.70;;;;;;1618257;71;724;-65
2022/07/06 03:04:23;;;;;;;;;;;26.60;39.70;;;;;;1619871;71;1110;-66
2022/07/06 03:06:25;;;;;;;;;;;26.60;39.70;;;;;;1616424;71;725;-67
2022/07/06 03:08:27;;;;;;;;;;;26.60;39.70;;;;;;1624674;71;1587;-67
2022/07/06 03:10:29;;;;;;;;;;;26.50;39.70;;;;;;1622748;71;760;-68
2022/07/06 03:12:31;;;;;;;;;;;26.50;39.70;;;;;;1622608;71;1165;-68
2022/07/06 03:14:33;;;;;;;;;;;26.50;39.70;;;;;;1619843;71;711;-68
2022/07/06 03:16:35;;;;;;;;;;;26.60;39.70;;;;;;1623940;71;728;-67
2022/07/06 03:18:36;;;;;;;;;;;26.60;39.70;;;;;;1618099;71;743;-67
2022/07/06 03:20:38;;;;;;;;;;;26.50;39.70;;;;;;1635333;71;1932;-66
2022/07/06 03:22:40;;;;;;;;;;;26.50;39.70;;;;;;1627542;71;1532;-67
2022/07/06 03:24:42;;;;;;;;;;;26.50;39.70;;;;;;1611452;71;723;-66
2022/07/06 03:26:44;;;;;;;;;;;26.50;39.70;;;;;;1625102;71;731;-66
2022/07/06 03:28:46;;;;;;;;;;;26.50;39.70;;;;;;1633631;71;683;-67
2022/07/06 03:30:48;;;;;;;;;;;26.50;39.70;;;;;;1623125;71;761;-66
2022/07/06 03:32:49;;;;;;;;;;;26.50;39.60;;;;;;1618405;71;1147;-67
2022/07/06 03:34:51;;;;;;;;;;;26.50;39.70;;;;;;1615906;71;810;-67
2022/07/06 03:36:53;;;;;;;;;;;26.50;39.70;;;;;;1625172;73;1702;-67
2022/07/06 03:38:55;;;;;;;;;;;26.50;39.60;;;;;;1627072;71;765;-67
2022/07/06 03:40:57;;;;;;;;;;;26.50;39.60;;;;;;1588324;73;1940;-66
2022/07/06 03:42:59;;;;;;;;;;;26.50;39.70;;;;;;1596834;73;1175;-67
2022/07/06 03:45:01;;;;;;;;;;;26.50;39.50;;;;;;1592893;73;695;-67
2022/07/06 03:47:03;;;;;;;;;;;26.40;39.60;;;;;;1593320;73;707;-66
2022/07/06 03:49:04;;;;;;;;;;;26.50;39.60;;;;;;1590991;73;1579;-66
2022/07/06 03:51:06;;;;;;;;;;;26.50;39.50;;;;;;1603695;73;670;-65
2022/07/06 03:53:08;;;;;;;;;;;26.50;39.50;;;;;;1600475;73;1099;-67
2022/07/06 03:55:11;;;;;;;;;;;26.50;39.50;;;;;;1601821;72;673;-67
2022/07/06 03:57:13;;;;;;;;;;;26.50;39.70;;;;;;1603773;73;686;-67
2022/07/06 03:59:15;;;;;;;;;;;26.50;39.70;;;;;;1596969;73;1897;-67
2022/07/06 04:01:17;;;;;;;;;;;26.50;39.70;;;;;;1618126;71;758;-68
2022/07/06 04:03:18;;;;;;;;;;;26.50;39.70;;;;;;1618696;71;1562;-67
2022/07/06 04:05:21;;;;;;;;;;;26.50;39.90;;;;;;1616623;71;722;-67
2022/07/06 04:07:23;;;;;;;;;;;26.50;39.90;;;;;;1623914;71;740;-67
2022/07/06 04:09:24;;;;;;;;;;;26.50;39.90;;;;;;1623405;71;702;-67
2022/07/06 04:11:26;;;;;;;;;;;26.60;39.90;;;;;;1625276;71;794;-67
2022/07/06 04:13:28;;;;;;;;;;;26.50;39.90;;;;;;1621687;73;1207;-67
2022/07/06 04:15:30;;;;;;;;;;;26.50;39.90;;;;;;1617527;71;668;-68
2022/07/06 04:19:51;;;;;;;;;;;26.50;39.80;;;;;;1601979;73;1909;-67
2022/07/06 04:21:53;;;;;;;;;;;26.50;39.80;;;;;;1609664;73;762;-67
2022/07/06 04:23:55;;;;;;;;;;;26.50;39.90;;;;;;1602481;73;1149;-68
2022/07/06 04:25:57;;;;;;;;;;;26.50;39.90;;;;;;1610069;73;829;-69
2022/07/06 04:27:59;;;;;;;;;;;26.50;39.90;;;;;;1609452;73;807;-69
2022/07/06 04:30:01;;;;;;;;;;;26.50;39.90;;;;;;1614651;73;888;-67
2022/07/06 04:32:03;;;;;;;;;;;26.50;39.90;;;;;;1610584;73;1583;-67
2022/07/06 04:34:05;;;;;;;;;;;26.60;39.90;;;;;;1620484;71;1158;-68
2022/07/06 04:36:07;;;;;;;;;;;26.50;39.80;;;;;;1615222;71;778;-67
2022/07/06 04:38:09;;;;;;;;;;;26.50;39.70;;;;;;1594843;73;682;-67
2022/07/06 04:40:11;;;;;;;;;;;26.50;39.80;;;;;;1590287;73;1970;-67
2022/07/06 04:42:13;;;;;;;;;;;26.50;39.70;;;;;;1597191;72;640;-68
2022/07/06 04:44:15;;;;;;;;;;;26.60;39.80;;;;;;1577058;73;1159;-67
2022/07/06 04:46:17;;;;;;;;;;;26.50;39.70;;;;;;1616275;72;1531;-66
2022/07/06 04:48:18;;;;;;;;;;;26.50;39.70;;;;;;1613625;71;765;-68
2022/07/06 04:50:20;;;;;;;;;;;26.60;39.70;;;;;;1619843;71;832;-67
2022/07/06 04:52:22;;;;;;;;;;;26.50;39.70;;;;;;1612104;71;735;-67
2022/07/06 04:54:24;;;;;;;;;;;26.50;39.70;;;;;;1609834;71;1107;-67
2022/07/06 04:56:26;;;;;;;;;;;26.50;39.70;;;;;;1615028;71;728;-67
2022/07/06 04:58:28;;;;;;;;;;;26.50;39.60;;;;;;1612531;71;880;-67
2022/07/06 05:00:30;;;;;;;;;;;26.50;39.60;;;;;;1615365;71;1935;-68
2022/07/06 05:02:31;;;;;;;;;;;26.50;39.70;;;;;;1612337;71;1145;-70
2022/07/06 05:04:33;;;;;;;;;;;26.50;39.70;;;;;;1617389;71;823;-70
2022/07/06 05:06:35;;;;;;;;;;;26.60;39.40;;;;;;1627190;72;756;-70
2022/07/06 05:08:38;;;;;;;;;;;26.50;39.30;;;;;;1616540;73;696;-70
2022/07/06 05:10:40;;;;;;;;;;;26.50;39.20;;;;;;1627981;73;822;-72
2022/07/06 05:12:42;;;;;;;;;;;26.50;39.20;;;;;;1618470;73;1191;-68
2022/07/06 05:14:44;;;;;;;;;;;26.50;39.10;;;;;;1621014;73;1342;-71
2022/07/06 05:16:45;;;;;;;;;;;26.40;39.10;;;;;;1624906;73;686;-68
2022/07/06 05:18:48;;;;;;;;;;;26.50;39.00;;;;;;1617027;71;745;-71
2022/07/06 05:20:50;;;;;;;;;;;26.40;38.90;;;;;;1628049;73;1911;-71
2022/07/06 05:22:51;;;;;;;;;;;26.40;38.90;;;;;;1624209;73;1167;-69
2022/07/06 05:24:53;;;;;;;;;;;26.30;38.80;;;;;;1629805;73;775;-69
2022/07/06 05:26:55;;;;;;;;;;;26.40;38.70;;;;;;1625214;73;801;-69
2022/07/06 05:28:57;;;;;;;;;;;26.40;38.60;;;;;;1623206;73;1592;-70
2022/07/06 05:30:59;;;;;;;;;;;26.30;38.50;;;;;;1615357;73;752;-69
2022/07/06 05:33:01;;;;;;;;;;;26.40;38.50;;;;;;1620825;73;1139;-69
2022/07/06 05:35:03;;;;;;;;;;;26.30;38.50;;;;;;1615665;73;783;-67
2022/07/06 05:37:05;;;;;;;;;;;26.20;38.50;;;;;;1630306;73;750;-70
2022/07/06 05:39:07;;;;;;;;;;;26.30;38.40;;;;;;1626285;73;708;-68
2022/07/06 05:41:09;;;;;;;;;;;26.30;38.40;;;;;;1624100;73;1927;-70
2022/07/06 05:43:11;;;;;;;;;;;26.30;38.40;;;;;;1621129;73;1536;-70
2022/07/06 05:45:13;;;;;;;;;;;26.40;38.50;;;;;;1628236;73;622;-72
2022/07/06 05:51:57;;;;;;;;;;;26.20;38.40;;;;;;1529620;77;1704;-69
2022/07/06 05:53:59;;;;;;;;;;;26.20;38.40;;;;;;1532192;76;1172;-71
2022/07/06 05:56:01;;;;;;;;;;;26.20;38.40;;;;;;1613834;73;1377;-71
2022/07/06 05:58:02;;;;;;;;;;;26.10;38.40;;;;;;1630795;73;756;-71
2022/07/06 06:00:05;;;;;;;;;;;26.10;38.40;;;;;;1625285;73;1913;-71
2022/07/06 06:02:06;;;;;;;;;;;26.10;38.40;;;;;;1615718;73;729;-71
2022/07/06 06:04:08;;;;;;;;;;;26.10;38.40;;;;;;1628056;73;1133;-71
2022/07/06 06:06:10;;;;;;;;;;;26.00;38.30;;;;;;1619414;73;687;-72
2022/07/06 06:08:12;;;;;;;;;;;26.10;38.30;;;;;;1616710;73;671;-71
2022/07/06 06:10:14;;;;;;;;;;;26.10;38.30;;;;;;1619614;73;1526;-70
2022/07/06 06:12:16;;;;;;;;;;;26.00;38.30;;;;;;1624136;73;798;-71
2022/07/06 06:14:18;;;;;;;;;;;26.10;38.30;;;;;;1609393;73;1165;-71
2022/07/06 06:16:20;;;;;;;;;;;26.10;38.20;;;;;;1618556;73;643;-70
2022/07/06 06:18:22;;;;;;;;;;;26.00;38.20;;;;;;1626253;73;698;-71
2022/07/06 06:20:24;;;;;;;;;;;26.10;38.20;;;;;;1617328;73;2180;-71
2022/07/06 06:22:26;;;;;;;;;;;26.00;38.30;;;;;;1629880;73;660;-70
2022/07/06 06:24:28;;;;;;;;;;;26.00;38.20;;;;;;1626889;73;1577;-70
2022/07/06 06:26:30;;;;;;;;;;;26.00;38.20;;;;;;1619577;73;702;-70
2022/07/06 06:28:31;;;;;;;;;;;26.00;38.20;;;;;;1630804;73;615;-71
2022/07/06 06:30:33;;;;;;;;;;;26.00;38.30;;;;;;1626349;73;679;-71
2022/07/06 06:32:35;;;;;;;;;;;26.00;38.30;;;;;;1628847;73;1212;-71
2022/07/06 06:34:37;;;;;;;;;;;26.00;38.30;;;;;;1623029;73;672;-71
2022/07/06 06:36:39;;;;;;;;;;;26.00;38.30;;;;;;1607603;73;837;-70
2022/07/06 06:38:41;;;;;;;;;;;25.90;37.80;;;;;;1619699;73;1541;-70
2022/07/06 06:40:43;;;;;;;;;;;26.00;38.30;;;;;;1625009;73;1925;-70
2022/07/06 06:42:44;;;;;;;;;;;26.00;38.40;;;;;;1624068;73;1148;-70
2022/07/06 06:44:46;;;;;;;;;;;25.90;37.80;;;;;;1624246;73;660;-70
2022/07/06 06:46:48;;;;;;;;;;;26.00;38.40;;;;;;1615747;73;662;-71
2022/07/06 06:48:50;;;;;;;;;;;25.90;37.80;;;;;;1611196;73;665;-71
2022/07/06 06:50:52;;;;;;;;;;;26.00;38.40;;;;;;1626282;73;694;-70
2022/07/06 06:52:54;;;;;;;;;;;25.90;37.80;;;;;;1628736;73;1613;-70
2022/07/06 06:54:56;;;;;;;;;;;25.90;37.80;;;;;;1620324;73;729;-70
2022/07/06 06:56:58;;;;;;;;;;;26.00;38.30;;;;;;1630648;73;649;-71
2022/07/06 06:59:01;;;;;;;;;;;26.00;38.30;;;;;;1619134;73;667;-71
2022/07/06 07:01:04;;;;;;;;;;;25.90;37.80;;;;;;1623538;73;1929;-71
2022/07/06 07:03:06;;;;;;;;;;;25.90;37.80;;;;;;1621001;73;1153;-70
2022/07/06 07:05:08;;;;;;;;;;;25.90;37.80;;;;;;1620966;73;644;-71
2022/07/06 07:07:09;;;;;;;;;;;26.00;38.30;;;;;;1630071;73;1517;-70
2022/07/06 07:09:11;;;;;;;;;;;26.00;38.40;;;;;;1628615;73;718;-70
2022/07/06 07:11:13;;;;;;;;;;;25.90;37.80;;;;;;1615436;73;822;-69
2022/07/06 07:13:15;;;;;;;;;;;25.90;37.80;;;;;;1610827;73;1112;-70
2022/07/06 07:15:17;;;;;;;;;;;25.90;37.70;;;;;;1623148;73;731;-70
2022/07/06 07:17:19;;;;;;;;;;;25.90;37.80;;;;;;1618858;73;730;-71
2022/07/06 07:19:21;;;;;;;;;;;26.00;38.30;;;;;;1624588;73;795;-69
2022/07/06 07:21:23;;;;;;;;;;;26.00;38.20;;;;;;1613655;73;1938;-70
2022/07/06 07:23:24;;;;;;;;;;;25.90;37.70;;;;;;1629233;73;1169;-71
2022/07/06 07:25:27;;;;;;;;;;;25.90;37.70;;;;;;1617594;73;682;-71
2022/07/06 07:27:29;;;;;;;;;;;25.90;37.70;;;;;;1625504;71;808;-71
2022/07/06 07:29:31;;;;;;;;;;;25.90;37.70;;;;;;1608643;73;681;-71
2022/07/06 07:31:32;;;;;;;;;;;25.90;37.70;;;;;;1624034;73;723;-71
2022/07/06 07:33:34;;;;;;;;;;;25.90;37.60;;;;;;1614248;71;2102;-68
2022/07/06 07:35:36;;;;;;;;;;;26.00;38.20;;;;;;1560354;74;1499;-69
2022/07/06 07:37:38;;;;;;;;;;;26.00;38.20;;;;;;1585831;73;674;-69
2022/07/06 07:39:40;;;;;;;;;;;25.90;37.80;;;;;;1582582;73;664;-69
2022/07/06 07:41:42;;;;;;;;;;;25.90;37.80;;;;;;1567904;74;1920;-67
2022/07/06 07:43:44;;;;;;;;;;;26.00;38.30;;;;;;1570279;75;1234;-68
2022/07/06 07:45:46;;;;;;;;;;;25.90;37.70;;;;;;1577795;75;655;-69
2022/07/06 07:47:48;;;;;;;;;;;25.90;37.80;;;;;;1585770;74;727;-69
2022/07/06 07:49:50;;;;;;;;;;;25.90;37.80;;;;;;1572003;75;1576;-69
2022/07/06 07:51:52;;;;;;;;;;;25.90;37.70;;;;;;1569625;75;707;-69
2022/07/06 07:53:53;;;;;;;;;;;26.00;38.30;;;;;;1579886;73;1162;-69
2022/07/06 07:55:55;;;;;;;;;;;25.90;37.70;;;;;;1585853;73;728;-69
2022/07/06 07:57:57;;;;;;;;;;;26.00;38.30;;;;;;1569547;74;734;-69
2022/07/06 07:59:59;;;;;;;;;;;25.90;37.70;;;;;;1568741;75;681;-68
2022/07/06 08:02:01;;;;;;;;;;;25.90;37.70;;;;;;1572902;74;1927;-69
2022/07/06 08:04:03;;;;;;;;;;;26.00;38.20;;;;;;1574098;74;1442;-69
2022/07/06 08:06:05;;;;;;;;;;;25.90;37.70;;;;;;1574154;75;690;-69
2022/07/06 08:08:07;;;;;;;;;;;26.00;38.10;;;;;;1578558;75;804;-69
2022/07/06 08:10:09;;;;;;;;;;;26.00;38.10;;;;;;1576546;73;635;-68
2022/07/06 08:12:11;;;;;;;;;;;26.00;38.00;;;;;;1568252;74;748;-68
2022/07/06 08:14:14;;;;;;;;;;;25.90;37.50;;;;;;1572360;75;1133;-68
2022/07/06 08:16:16;;;;;;;;;;;26.00;38.10;;;;;;1575493;74;1507;-69
2022/07/06 08:18:18;;;;;;;;;;;25.90;37.50;;;;;;1580926;74;686;-69
2022/07/06 08:20:19;;;;;;;;;;;25.90;37.40;;;;;;1579282;75;714;-69
2022/07/06 08:22:21;;;;;;;;;;;25.90;37.40;;;;;;1582947;74;1937;-68
2022/07/06 08:24:23;;;;;;;;;;;25.90;37.40;;;;;;1584854;73;1139;-69
2022/07/06 08:26:25;;;;;;;;;;;25.90;37.50;;;;;;1580095;75;659;-68
2022/07/06 08:28:27;;;;;;;;;;;26.00;38.00;;;;;;1579388;74;692;-68
2022/07/06 08:30:31;;;;;;;;;;;25.90;37.40;;;;;;1581615;74;1461;-69
2022/07/06 08:32:33;;;;;;;;;;;25.90;37.40;;;;;;1580131;74;734;-69
2022/07/06 08:34:34;;;;;;;;;;;26.00;38.00;;;;;;1581353;74;1104;-69
2022/07/06 08:36:36;;;;;;;;;;;26.00;38.00;;;;;;1585303;75;575;-69
2022/07/06 08:38:38;;;;;;;;;;;26.00;38.10;;;;;;1583061;75;694;-69
2022/07/06 08:40:40;;;;;;;;;;;26.00;38.00;;;;;;1586089;75;728;-68
2022/07/06 08:42:42;;;;;;;;;;;26.00;38.10;;;;;;1580190;75;1930;-67
2022/07/06 08:44:44;;;;;;;;;;;25.90;37.50;;;;;;1571672;75;1549;-68
2022/07/06 08:46:46;;;;;;;;;;;26.00;38.00;;;;;;1581694;75;636;-68
2022/07/06 08:48:48;;;;;;;;;;;26.00;38.00;;;;;;1577499;75;735;-68
2022/07/06 08:50:50;;;;;;;;;;;25.90;37.40;;;;;;1582003;74;690;-69
2022/07/06 08:52:52;;;;;;;;;;;26.00;37.90;;;;;;1584333;73;664;-69
2022/07/06 08:54:54;;;;;;;;;;;26.00;37.90;;;;;;1577279;74;770;-69
2022/07/06 08:56:56;;;;;;;;;;;25.90;37.30;;;;;;1585103;74;670;-71
2022/07/06 08:58:58;;;;;;;;;;;25.90;37.40;;;;;;1578804;75;1364;-69
2022/07/06 09:01:00;;;;;;;;;;;26.00;37.90;;;;;;1579963;75;1933;-68
2022/07/06 09:03:02;;;;;;;;;;;25.90;37.30;;;;;;1583963;74;1124;-71
2022/07/06 09:05:04;;;;;;;;;;;25.90;37.30;;;;;;1581497;74;659;-68
2022/07/06 09:07:06;;;;;;;;;;;25.90;37.30;;;;;;1587461;73;642;-69
2022/07/06 09:09:08;;;;;;;;;;;25.90;37.30;;;;;;1582471;74;746;-68
2022/07/06 09:11:10;;;;;;;;;;;25.90;37.20;;;;;;1582928;74;690;-69
2022/07/06 09:13:11;;;;;;;;;;;26.00;37.80;;;;;;1572584;74;1343;-69
2022/07/06 09:15:13;;;;;;;;;;;26.00;37.70;;;;;;1568584;73;770;-69
2022/07/06 09:17:15;;;;;;;;;;;26.00;37.70;;;;;;1570943;75;649;-69
2022/07/06 09:19:18;;;;;;;;;;;25.90;37.10;;;;;;1580285;74;682;-69
2022/07/06 09:21:24;;;;;;;;;;;26.00;37.70;;;;;;1579870;73;1904;-69
2022/07/06 09:23:26;;;;;;;;;;;26.00;37.60;;;;;;1584073;74;1141;-70
2022/07/06 09:25:27;;;;;;;;;;;26.00;37.60;;;;;;1583473;75;622;-69
2022/07/06 09:27:29;;;;;;;;;;;26.00;37.60;;;;;;1578675;75;1534;-70
2022/07/06 09:29:31;;;;;;;;;;;26.00;37.60;;;;;;1582020;75;554;-69
2022/07/06 09:31:33;;;;;;;;;;;26.00;37.60;;;;;;1580686;74;750;-69
2022/07/06 09:33:35;;;;;;;;;;;26.00;37.60;;;;;;1586422;74;1154;-69
2022/07/06 09:35:37;;;;;;;;;;;26.00;37.60;;;;;;1579094;73;983;-68
2022/07/06 09:37:39;;;;;;;;;;;26.00;37.50;;;;;;1585135;74;569;-68
2022/07/06 09:39:41;;;;;;;;;;;25.90;36.90;;;;;;1586426;75;552;-69
2022/07/06 09:41:43;;;;;;;;;;;26.00;37.50;;;;;;1576849;74;1935;-68
2022/07/06 09:43:45;;;;;;;;;;;26.00;37.50;;;;;;1573836;75;1157;-69
2022/07/06 09:45:47;;;;;;;;;;;26.00;37.40;;;;;;1585641;74;663;-68
2022/07/06 09:47:49;;;;;;;;;;;26.00;37.40;;;;;;1589562;74;686;-68
2022/07/06 09:49:51;;;;;;;;;;;26.00;37.40;;;;;;1592884;73;715;-68
2022/07/06 09:51:53;;;;;;;;;;;26.00;37.40;;;;;;1552850;76;1476;-69
2022/07/06 09:53:55;;;;;;;;;;;26.00;37.40;;;;;;1602547;73;1142;-69
2022/07/06 09:56:02;;;;;;;;;;;26.00;37.50;;;;;;1588702;73;1562;-69
2022/07/06 09:58:01;;;;;;;;;;;26.00;37.40;;;;;;1610288;73;1513;-70
2022/07/06 10:00:03;;;;;;;;;;;26.00;37.40;;;;;;1593014;73;684;-71
2022/07/06 10:02:06;;;;;;;;;;;26.10;37.50;;;;;;1549744;74;1939;-70
2022/07/06 10:04:08;;;;;;;;;;;26.00;37.60;;;;;;1564963;75;1136;-69
2022/07/06 10:06:10;;;;;;;;;;;26.00;37.60;;;;;;1587361;73;751;-70
2022/07/06 10:08:12;;;;;;;;;;;26.00;37.60;;;;;;1578936;73;664;-70
2022/07/06 10:10:15;;;;;;;;;;;26.00;37.70;;;;;;1579784;73;1493;-69
2022/07/06 10:12:17;;;;;;;;;;;26.00;37.60;;;;;;1573602;73;687;-67
2022/07/06 10:14:20;;;;;;;;;;;26.10;37.70;;;;;;1577661;73;1495;-69
2022/07/06 10:16:25;;;;;;;;;;;26.00;37.60;;;;;;1596478;73;719;-69
2022/07/06 10:18:27;;;;;;;;;;;26.10;37.70;;;;;;1600791;73;663;-68
2022/07/06 10:20:31;;;;;;;;;;;26.20;37.70;;;;;;1600044;73;750;-68
2022/07/06 10:22:33;;;;;;;;;;;26.20;37.50;;;;;;1591174;73;1921;-68
2022/07/06 10:24:39;;;;;;;;;;;26.20;37.30;;;;;;1600455;73;1340;-62
2022/07/06 10:26:38;;;;;;;;;;;26.20;37.30;;;;;;1608483;73;1461;-67
2022/07/06 10:28:40;;;;;;;;;;;26.20;37.30;;;;;;1565277;74;720;-66
2022/07/06 10:30:42;;;;;;;;;;;26.30;37.30;;;;;;1587258;73;646;-64
2022/07/06 10:32:45;;;;;;;;;;;26.30;37.20;;;;;;1584199;73;766;-66
2022/07/06 10:34:46;;;;;;;;;;;26.30;36.90;;;;;;1583400;73;1118;-63
2022/07/06 10:36:50;;;;;;;;;;;26.40;36.60;;;;;;1582641;73;714;-65
2022/07/06 10:38:52;;;;;;;;;;;26.30;36.40;;;;;;1574101;73;650;-65
2022/07/06 10:41:03;;;;;;;;;;;26.20;36.40;;;;;;1581889;73;566;-65
2022/07/06 10:43:05;;;;;;;;;;;26.20;36.50;;;;;;1556970;75;1923;-66
2022/07/06 10:45:07;;;;;;;;;;;26.20;36.40;;;;;;1595314;73;681;-65
2022/07/06 10:47:09;;;;;;;;;;;26.20;36.30;;;;;;1569831;75;711;-67
2022/07/06 10:49:17;;;;;;;;;;;26.20;36.30;;;;;;1604575;73;737;-65
2022/07/06 10:51:25;;;;;;;;;;;26.20;36.40;;;;;;1567245;74;1373;-65
2022/07/06 10:53:28;;;;;;;;;;;26.20;36.30;;;;;;1580470;73;1146;-65
2022/07/06 10:55:31;;;;;;;;;;;26.20;36.30;;;;;;1587396;75;677;-65
2022/07/06 10:57:34;;;;;;;;;;;26.20;36.10;;;;;;1563790;74;1682;-66
2022/07/06 10:59:36;;;;;;;;;;;26.20;36.20;;;;;;1551625;74;1847;-65
2022/07/06 11:01:38;;;;;;;;;;;26.30;36.10;;;;;;1589142;73;739;-65
2022/07/06 11:03:50;;;;;;;;;;;26.30;36.30;;;;;;1575680;73;1963;-66
2022/07/06 11:05:53;;;;;;;;;;;26.40;36.10;;;;;;1586301;73;1471;-67
2022/07/06 11:07:55;;;;;;;;;;;26.30;36.10;;;;;;1564987;74;1508;-65
2022/07/06 11:09:57;;;;;;;;;;;26.30;36.20;;;;;;1528021;76;1148;-66
2022/07/06 11:11:59;;;;;;;;;;;26.30;36.30;;;;;;1557855;74;989;-66
2022/07/06 11:14:09;;;;;;;;;;;26.30;36.30;;;;;;1556300;74;1146;-65
2022/07/06 11:16:11;;;;;;;;;;;26.30;36.30;;;;;;1567241;74;648;-66
2022/07/06 11:18:13;;;;;;;;;;;26.30;36.40;;;;;;1586501;75;739;-66
2022/07/06 11:20:15;;;;;;;;;;;26.30;36.30;;;;;;1583060;74;1468;-66
2022/07/06 11:22:18;;;;;;;;;;;26.40;36.30;;;;;;1584704;75;1931;-66
2022/07/06 11:24:22;;;;;;;;;;;26.40;36.20;;;;;;1572811;75;1175;-66
2022/07/06 11:26:24;;;;;;;;;;;26.40;35.90;;;;;;1574703;74;667;-65
2022/07/06 11:28:26;;;;;;;;;;;26.40;36.10;;;;;;1579766;74;796;-64
2022/07/06 11:30:28;;;;;;;;;;;26.40;35.70;;;;;;1568321;75;755;-65
2022/07/06 11:32:31;;;;;;;;;;;26.40;36.20;;;;;;1572306;75;649;-66
2022/07/06 11:34:34;;;;;;;;;;;26.30;36.10;;;;;;1571816;74;1483;-65
2022/07/06 11:36:36;;;;;;;;;;;26.30;36.10;;;;;;1583187;75;833;-65
2022/07/06 11:38:37;;;;;;;;;;;26.40;35.60;;;;;;1585199;75;561;-65
2022/07/06 11:40:39;;;;;;;;;;;26.30;36.20;;;;;;1568685;75;661;-65
2022/07/06 11:42:41;;;;;;;;;;;26.40;36.20;;;;;;1586401;75;1925;-63
2022/07/06 11:44:43;;;;;;;;;;;26.50;36.10;;;;;;1541219;76;1126;-66
2022/07/06 11:46:45;;;;;;;;;;;26.40;35.90;;;;;;1583373;73;692;-66
2022/07/06 11:48:51;;;;;;;;;;;26.40;36.00;;;;;;1583868;74;1549;-67
2022/07/06 11:50:59;;;;;;;;;;;26.40;35.80;;;;;;1573024;74;622;-66
2022/07/06 11:53:01;;;;;;;;;;;26.30;35.90;;;;;;1574968;74;1161;-68
2022/07/06 11:55:03;;;;;;;;;;;26.40;35.50;;;;;;1581729;74;660;-63
2022/07/06 11:57:07;;;;;;;;;;;26.30;36.00;;;;;;1577162;75;817;-65
2022/07/06 11:59:08;;;;;;;;;;;26.30;35.90;;;;;;1582642;75;694;-65
2022/07/06 12:01:11;;;;;;;;;;;26.30;35.90;;;;;;1582628;74;760;-65
2022/07/06 12:03:12;;;;;;;;;;;26.30;36.00;;;;;;1574555;73;1935;-64
2022/07/06 12:05:16;;;;;;;;;;;26.30;36.00;;;;;;1538085;76;1211;-66
2022/07/06 12:07:18;;;;;;;;;;;26.30;36.00;;;;;;1576027;75;1656;-65
2022/07/06 12:09:20;;;;;;;;;;;26.30;36.00;;;;;;1573267;75;711;-64
2022/07/06 12:11:23;;;;;;;;;;;26.30;35.80;;;;;;1578307;75;728;-65
2022/07/06 12:13:25;;;;;;;;;;;26.30;35.70;;;;;;1578475;73;1266;-67
2022/07/06 12:15:29;;;;;;;;;;;26.30;35.80;;;;;;1586249;73;1472;-65